sensor_id;sensor_type;location;lat;lon;timestamp;P1;durP1;ratioP1;P2;durP2;ratioP2
48941;SDS011;35340;52.378;4.648;2023-02-13T00:00:31;7.82;;;5.97;;
48941;SDS011;35340;52.378;4.648;2023-02-13T00:02:58;7.25;;;5.75;;
48941;SDS011;35340;52.378;4.648;2023-02-13T00:05:23;7.43;;;5.88;;
48941;SDS011;35340;52.378;4.648;2023-02-13T00:07:48;9.13;;;5.97;;
48941;SDS011;35340;52.378;4.648;2023-02-13T00:10:14;7.07;;;5.90;;
48941;SDS011;35340;52.378;4.648;2023-02-13T00:12:40;7.32;;;6.10;;
48941;SDS011;35340;52.378;4.648;2023-02-13T00:15:06;9.32;;;6.22;;
48941;SDS011;35340;52.378;4.648;2023-02-13T00:17:34;7.78;;;5.57;;
48941;SDS011;35340;52.378;4.648;2023-02-13T00:20:03;7.90;;;5.60;;
48941;SDS011;35340;52.378;4.648;2023-02-13T00:22:33;6.47;;;5.63;;
48941;SDS011;35340;52.378;4.648;2023-02-13T00:25:00;7.57;;;5.90;;
48941;SDS011;35340;52.378;4.648;2023-02-13T00:27:28;7.50;;;6.35;;
48941;SDS011;35340;52.378;4.648;2023-02-13T00:29:53;7.85;;;6.13;;
48941;SDS011;35340;52.378;4.648;2023-02-13T00:32:19;8.63;;;5.78;;
48941;SDS011;35340;52.378;4.648;2023-02-13T00:34:44;7.20;;;5.85;;
48941;SDS011;35340;52.378;4.648;2023-02-13T00:37:10;6.57;;;5.55;;
48941;SDS011;35340;52.378;4.648;2023-02-13T00:39:35;8.02;;;5.90;;
48941;SDS011;35340;52.378;4.648;2023-02-13T00:42:00;6.45;;;5.65;;
48941;SDS011;35340;52.378;4.648;2023-02-13T00:44:26;7.00;;;5.85;;
48941;SDS011;35340;52.378;4.648;2023-02-13T00:46:51;6.38;;;5.28;;
48941;SDS011;35340;52.378;4.648;2023-02-13T00:49:17;6.15;;;5.53;;
48941;SDS011;35340;52.378;4.648;2023-02-13T00:51:45;6.28;;;5.60;;
48941;SDS011;35340;52.378;4.648;2023-02-13T00:54:14;6.45;;;5.57;;
48941;SDS011;35340;52.378;4.648;2023-02-13T00:56:39;6.65;;;5.65;;
48941;SDS011;35340;52.378;4.648;2023-02-13T00:59:04;7.65;;;5.85;;
48941;SDS011;35340;52.378;4.648;2023-02-13T01:01:30;7.22;;;5.28;;
48941;SDS011;35340;52.378;4.648;2023-02-13T01:03:55;7.47;;;5.50;;
48941;SDS011;35340;52.378;4.648;2023-02-13T01:06:22;6.72;;;5.60;;
48941;SDS011;35340;52.378;4.648;2023-02-13T01:08:47;6.93;;;5.97;;
48941;SDS011;35340;52.378;4.648;2023-02-13T01:11:12;7.65;;;5.35;;
48941;SDS011;35340;52.378;4.648;2023-02-13T01:13:38;7.63;;;5.53;;
48941;SDS011;35340;52.378;4.648;2023-02-13T01:16:03;10.40;;;5.78;;
48941;SDS011;35340;52.378;4.648;2023-02-13T01:18:29;9.30;;;5.97;;
48941;SDS011;35340;52.378;4.648;2023-02-13T01:20:58;7.35;;;5.63;;
48941;SDS011;35340;52.378;4.648;2023-02-13T01:23:29;7.25;;;5.55;;
48941;SDS011;35340;52.378;4.648;2023-02-13T01:25:56;6.57;;;5.20;;
48941;SDS011;35340;52.378;4.648;2023-02-13T01:28:21;5.90;;;5.20;;
48941;SDS011;35340;52.378;4.648;2023-02-13T01:30:56;6.38;;;5.40;;
48941;SDS011;35340;52.378;4.648;2023-02-13T01:33:23;6.20;;;5.32;;
48941;SDS011;35340;52.378;4.648;2023-02-13T01:35:50;6.72;;;6.03;;
48941;SDS011;35340;52.378;4.648;2023-02-13T01:38:16;6.82;;;5.57;;
48941;SDS011;35340;52.378;4.648;2023-02-13T01:40:48;6.50;;;5.65;;
48941;SDS011;35340;52.378;4.648;2023-02-13T01:43:15;5.88;;;5.18;;
48941;SDS011;35340;52.378;4.648;2023-02-13T01:45:41;6.97;;;5.68;;
48941;SDS011;35340;52.378;4.648;2023-02-13T01:48:16;6.25;;;5.47;;
48941;SDS011;35340;52.378;4.648;2023-02-13T01:53:26;6.65;;;5.93;;
48941;SDS011;35340;52.378;4.648;2023-02-13T01:55:59;7.68;;;6.22;;
48941;SDS011;35340;52.378;4.648;2023-02-13T01:58:43;6.35;;;5.53;;
48941;SDS011;35340;52.378;4.648;2023-02-13T02:01:13;7.15;;;5.68;;
48941;SDS011;35340;52.378;4.648;2023-02-13T02:03:48;5.90;;;5.30;;
48941;SDS011;35340;52.378;4.648;2023-02-13T02:06:17;6.30;;;5.28;;
48941;SDS011;35340;52.378;4.648;2023-02-13T02:08:51;7.78;;;5.63;;
48941;SDS011;35340;52.378;4.648;2023-02-13T02:11:31;6.20;;;5.60;;
48941;SDS011;35340;52.378;4.648;2023-02-13T02:14:01;6.03;;;5.43;;
48941;SDS011;35340;52.378;4.648;2023-02-13T02:16:27;6.15;;;5.53;;
48941;SDS011;35340;52.378;4.648;2023-02-13T02:18:54;6.93;;;5.43;;
48941;SDS011;35340;52.378;4.648;2023-02-13T02:40:25;5.97;;;5.32;;
48941;SDS011;35340;52.378;4.648;2023-02-13T02:45:58;7.13;;;5.97;;
48941;SDS011;35340;52.378;4.648;2023-02-13T02:48:49;5.85;;;5.28;;
48941;SDS011;35340;52.378;4.648;2023-02-13T02:51:46;5.78;;;5.18;;
48941;SDS011;35340;52.378;4.648;2023-02-13T02:54:25;6.90;;;5.40;;
48941;SDS011;35340;52.378;4.648;2023-02-13T02:57:19;6.43;;;5.20;;
48941;SDS011;35340;52.378;4.648;2023-02-13T03:02:34;6.60;;;5.90;;
48941;SDS011;35340;52.378;4.648;2023-02-13T03:05:20;6.47;;;5.78;;
48941;SDS011;35340;52.378;4.648;2023-02-13T03:08:08;6.15;;;5.25;;
48941;SDS011;35340;52.378;4.648;2023-02-13T03:10:35;6.07;;;5.47;;
48941;SDS011;35340;52.378;4.648;2023-02-13T03:16:11;6.55;;;5.18;;
48941;SDS011;35340;52.378;4.648;2023-02-13T03:19:01;6.25;;;5.43;;
48941;SDS011;35340;52.378;4.648;2023-02-13T03:21:51;6.18;;;5.57;;
48941;SDS011;35340;52.378;4.648;2023-02-13T03:27:54;7.97;;;5.53;;
48941;SDS011;35340;52.378;4.648;2023-02-13T03:39:08;5.07;;;4.57;;
48941;SDS011;35340;52.378;4.648;2023-02-13T03:41:44;5.32;;;4.82;;
48941;SDS011;35340;52.378;4.648;2023-02-13T03:44:17;5.20;;;4.68;;
48941;SDS011;35340;52.378;4.648;2023-02-13T03:46:52;5.05;;;4.43;;
48941;SDS011;35340;52.378;4.648;2023-02-13T03:49:22;5.32;;;4.75;;
48941;SDS011;35340;52.378;4.648;2023-02-13T03:52:21;5.03;;;4.53;;
48941;SDS011;35340;52.378;4.648;2023-02-13T03:54:57;4.80;;;4.20;;
48941;SDS011;35340;52.378;4.648;2023-02-13T03:57:46;4.78;;;4.28;;
48941;SDS011;35340;52.378;4.648;2023-02-13T04:00:34;4.43;;;4.03;;
48941;SDS011;35340;52.378;4.648;2023-02-13T04:06:15;4.43;;;4.00;;
48941;SDS011;35340;52.378;4.648;2023-02-13T04:08:45;4.40;;;4.00;;
48941;SDS011;35340;52.378;4.648;2023-02-13T04:11:16;4.75;;;4.05;;
48941;SDS011;35340;52.378;4.648;2023-02-13T04:16:22;5.32;;;4.10;;
48941;SDS011;35340;52.378;4.648;2023-02-13T04:18:54;6.40;;;4.15;;
48941;SDS011;35340;52.378;4.648;2023-02-13T04:21:21;4.78;;;4.28;;
48941;SDS011;35340;52.378;4.648;2023-02-13T04:23:46;4.88;;;4.05;;
48941;SDS011;35340;52.378;4.648;2023-02-13T04:26:14;4.70;;;4.00;;
48941;SDS011;35340;52.378;4.648;2023-02-13T04:28:42;4.55;;;4.00;;
48941;SDS011;35340;52.378;4.648;2023-02-13T04:31:07;6.28;;;4.20;;
48941;SDS011;35340;52.378;4.648;2023-02-13T04:33:33;4.43;;;3.95;;
48941;SDS011;35340;52.378;4.648;2023-02-13T04:35:58;5.38;;;4.15;;
48941;SDS011;35340;52.378;4.648;2023-02-13T04:38:23;4.68;;;4.15;;
48941;SDS011;35340;52.378;4.648;2023-02-13T04:40:49;4.65;;;4.20;;
48941;SDS011;35340;52.378;4.648;2023-02-13T04:43:14;5.57;;;4.30;;
48941;SDS011;35340;52.378;4.648;2023-02-13T04:45:40;6.20;;;4.72;;
48941;SDS011;35340;52.378;4.648;2023-02-13T04:48:05;5.72;;;4.60;;
48941;SDS011;35340;52.378;4.648;2023-02-13T04:50:31;5.30;;;4.30;;
48941;SDS011;35340;52.378;4.648;2023-02-13T04:52:56;4.72;;;4.22;;
48941;SDS011;35340;52.378;4.648;2023-02-13T04:55:22;5.07;;;4.43;;
48941;SDS011;35340;52.378;4.648;2023-02-13T04:57:55;4.78;;;4.28;;
48941;SDS011;35340;52.378;4.648;2023-02-13T05:00:22;4.90;;;4.40;;
48941;SDS011;35340;52.378;4.648;2023-02-13T05:02:49;4.97;;;4.43;;
48941;SDS011;35340;52.378;4.648;2023-02-13T05:05:15;4.93;;;4.32;;
48941;SDS011;35340;52.378;4.648;2023-02-13T05:07:40;4.63;;;4.15;;
48941;SDS011;35340;52.378;4.648;2023-02-13T05:10:06;4.18;;;3.78;;
48941;SDS011;35340;52.378;4.648;2023-02-13T05:12:33;4.50;;;4.10;;
48941;SDS011;35340;52.378;4.648;2023-02-13T05:14:58;5.85;;;4.40;;
48941;SDS011;35340;52.378;4.648;2023-02-13T05:17:23;5.03;;;4.53;;
48941;SDS011;35340;52.378;4.648;2023-02-13T05:19:49;5.22;;;4.18;;
48941;SDS011;35340;52.378;4.648;2023-02-13T05:22:14;4.45;;;4.05;;
48941;SDS011;35340;52.378;4.648;2023-02-13T05:24:58;5.78;;;3.70;;
48941;SDS011;35340;52.378;4.648;2023-02-13T05:27:23;5.22;;;3.97;;
48941;SDS011;35340;52.378;4.648;2023-02-13T05:29:49;4.35;;;3.95;;
48941;SDS011;35340;52.378;4.648;2023-02-13T05:32:14;5.05;;;4.28;;
48941;SDS011;35340;52.378;4.648;2023-02-13T05:34:40;4.25;;;3.72;;
48941;SDS011;35340;52.378;4.648;2023-02-13T05:37:05;4.72;;;3.97;;
48941;SDS011;35340;52.378;4.648;2023-02-13T05:39:31;6.28;;;4.13;;
48941;SDS011;35340;52.378;4.648;2023-02-13T05:41:56;4.45;;;3.63;;
48941;SDS011;35340;52.378;4.648;2023-02-13T05:44:22;4.30;;;3.88;;
48941;SDS011;35340;52.378;4.648;2023-02-13T05:46:47;4.47;;;3.63;;
48941;SDS011;35340;52.378;4.648;2023-02-13T05:49:13;4.32;;;3.90;;
48941;SDS011;35340;52.378;4.648;2023-02-13T05:51:39;4.13;;;3.72;;
48941;SDS011;35340;52.378;4.648;2023-02-13T05:54:06;4.78;;;3.88;;
48941;SDS011;35340;52.378;4.648;2023-02-13T05:56:32;4.57;;;3.85;;
48941;SDS011;35340;52.378;4.648;2023-02-13T05:58:57;12.05;;;3.92;;
48941;SDS011;35340;52.378;4.648;2023-02-13T06:01:23;3.83;;;3.30;;
48941;SDS011;35340;52.378;4.648;2023-02-13T06:03:49;4.20;;;3.55;;
48941;SDS011;35340;52.378;4.648;2023-02-13T06:06:15;4.93;;;3.50;;
48941;SDS011;35340;52.378;4.648;2023-02-13T06:08:41;5.93;;;3.38;;
48941;SDS011;35340;52.378;4.648;2023-02-13T06:11:07;3.78;;;3.38;;
48941;SDS011;35340;52.378;4.648;2023-02-13T06:13:33;4.35;;;3.80;;
48941;SDS011;35340;52.378;4.648;2023-02-13T06:15:59;4.63;;;3.75;;
48941;SDS011;35340;52.378;4.648;2023-02-13T06:18:24;4.32;;;3.15;;
48941;SDS011;35340;52.378;4.648;2023-02-13T06:20:50;5.22;;;3.20;;
48941;SDS011;35340;52.378;4.648;2023-02-13T06:23:15;10.98;;;3.70;;
48941;SDS011;35340;52.378;4.648;2023-02-13T06:25:41;6.13;;;3.38;;
48941;SDS011;35340;52.378;4.648;2023-02-13T06:28:07;11.95;;;3.45;;
48941;SDS011;35340;52.378;4.648;2023-02-13T06:30:33;6.07;;;3.33;;
48941;SDS011;35340;52.378;4.648;2023-02-13T06:32:59;7.95;;;3.30;;
48941;SDS011;35340;52.378;4.648;2023-02-13T06:35:25;3.88;;;3.20;;
48941;SDS011;35340;52.378;4.648;2023-02-13T06:37:50;13.18;;;3.25;;
48941;SDS011;35340;52.378;4.648;2023-02-13T06:40:16;5.35;;;3.38;;
48941;SDS011;35340;52.378;4.648;2023-02-13T06:42:42;7.22;;;3.55;;
48941;SDS011;35340;52.378;4.648;2023-02-13T06:45:10;18.58;;;7.40;;
48941;SDS011;35340;52.378;4.648;2023-02-13T06:47:40;17.40;;;5.35;;
48941;SDS011;35340;52.378;4.648;2023-02-13T06:50:06;12.27;;;5.38;;
48941;SDS011;35340;52.378;4.648;2023-02-13T06:52:32;13.45;;;5.20;;
48941;SDS011;35340;52.378;4.648;2023-02-13T06:54:58;12.43;;;5.30;;
48941;SDS011;35340;52.378;4.648;2023-02-13T06:57:24;15.98;;;4.75;;
48941;SDS011;35340;52.378;4.648;2023-02-13T06:59:50;8.02;;;4.57;;
48941;SDS011;35340;52.378;4.648;2023-02-13T07:02:16;8.35;;;4.30;;
48941;SDS011;35340;52.378;4.648;2023-02-13T07:04:42;13.32;;;4.57;;
48941;SDS011;35340;52.378;4.648;2023-02-13T07:07:07;8.05;;;4.45;;
48941;SDS011;35340;52.378;4.648;2023-02-13T07:09:35;10.75;;;4.43;;
48941;SDS011;35340;52.378;4.648;2023-02-13T07:12:01;7.35;;;4.22;;
48941;SDS011;35340;52.378;4.648;2023-02-13T07:14:28;5.68;;;3.90;;
48941;SDS011;35340;52.378;4.648;2023-02-13T07:16:53;7.15;;;4.43;;
48941;SDS011;35340;52.378;4.648;2023-02-13T07:19:18;8.52;;;4.28;;
48941;SDS011;35340;52.378;4.648;2023-02-13T07:21:44;7.13;;;4.40;;
48941;SDS011;35340;52.378;4.648;2023-02-13T07:24:09;9.32;;;4.15;;
48941;SDS011;35340;52.378;4.648;2023-02-13T07:26:35;6.05;;;4.05;;
48941;SDS011;35340;52.378;4.648;2023-02-13T07:29:00;6.40;;;4.13;;
48941;SDS011;35340;52.378;4.648;2023-02-13T07:31:30;8.68;;;3.65;;
48941;SDS011;35340;52.378;4.648;2023-02-13T07:33:59;6.50;;;3.83;;
48941;SDS011;35340;52.378;4.648;2023-02-13T07:36:25;6.95;;;3.60;;
48941;SDS011;35340;52.378;4.648;2023-02-13T07:38:51;7.68;;;3.90;;
48941;SDS011;35340;52.378;4.648;2023-02-13T07:41:16;5.93;;;3.58;;
48941;SDS011;35340;52.378;4.648;2023-02-13T07:43:42;6.45;;;3.60;;
48941;SDS011;35340;52.378;4.648;2023-02-13T07:46:07;6.53;;;3.85;;
48941;SDS011;35340;52.378;4.648;2023-02-13T07:48:33;7.05;;;3.65;;
48941;SDS011;35340;52.378;4.648;2023-02-13T07:50:59;6.95;;;4.05;;
48941;SDS011;35340;52.378;4.648;2023-02-13T07:53:32;6.75;;;4.10;;
48941;SDS011;35340;52.378;4.648;2023-02-13T07:55:57;6.45;;;3.55;;
48941;SDS011;35340;52.378;4.648;2023-02-13T07:58:23;7.35;;;3.75;;
48941;SDS011;35340;52.378;4.648;2023-02-13T08:00:48;6.93;;;3.90;;
48941;SDS011;35340;52.378;4.648;2023-02-13T08:03:13;5.03;;;3.55;;
48941;SDS011;35340;52.378;4.648;2023-02-13T08:05:39;8.60;;;4.35;;
48941;SDS011;35340;52.378;4.648;2023-02-13T08:08:05;5.28;;;3.90;;
48941;SDS011;35340;52.378;4.648;2023-02-13T08:10:30;6.28;;;3.65;;
48941;SDS011;35340;52.378;4.648;2023-02-13T08:13:14;5.75;;;3.72;;
48941;SDS011;35340;52.378;4.648;2023-02-13T08:15:40;7.38;;;3.47;;
48941;SDS011;35340;52.378;4.648;2023-02-13T08:18:08;5.13;;;3.42;;
48941;SDS011;35340;52.378;4.648;2023-02-13T08:20:34;4.68;;;3.40;;
48941;SDS011;35340;52.378;4.648;2023-02-13T08:23:06;4.85;;;3.30;;
48941;SDS011;35340;52.378;4.648;2023-02-13T08:25:33;5.68;;;3.60;;
48941;SDS011;35340;52.378;4.648;2023-02-13T08:28:00;5.10;;;3.58;;
48941;SDS011;35340;52.378;4.648;2023-02-13T08:30:26;4.63;;;3.42;;
48941;SDS011;35340;52.378;4.648;2023-02-13T08:32:52;5.00;;;3.30;;
48941;SDS011;35340;52.378;4.648;2023-02-13T08:35:18;4.38;;;3.15;;
48941;SDS011;35340;52.378;4.648;2023-02-13T08:37:43;4.32;;;3.35;;
48941;SDS011;35340;52.378;4.648;2023-02-13T08:40:09;4.65;;;3.50;;
48941;SDS011;35340;52.378;4.648;2023-02-13T08:42:35;4.82;;;3.50;;
48941;SDS011;35340;52.378;4.648;2023-02-13T08:45:01;4.30;;;3.15;;
48941;SDS011;35340;52.378;4.648;2023-02-13T08:47:27;5.38;;;3.33;;
48941;SDS011;35340;52.378;4.648;2023-02-13T08:49:52;4.82;;;3.40;;
48941;SDS011;35340;52.378;4.648;2023-02-13T08:52:18;4.85;;;3.47;;
48941;SDS011;35340;52.378;4.648;2023-02-13T08:54:43;4.10;;;3.33;;
48941;SDS011;35340;52.378;4.648;2023-02-13T08:57:09;3.53;;;3.15;;
48941;SDS011;35340;52.378;4.648;2023-02-13T08:59:34;4.55;;;3.30;;
48941;SDS011;35340;52.378;4.648;2023-02-13T09:02:00;3.58;;;3.20;;
48941;SDS011;35340;52.378;4.648;2023-02-13T09:04:25;4.10;;;2.97;;
48941;SDS011;35340;52.378;4.648;2023-02-13T09:06:51;3.92;;;2.80;;
48941;SDS011;35340;52.378;4.648;2023-02-13T09:09:17;4.20;;;3.20;;
48941;SDS011;35340;52.378;4.648;2023-02-13T09:11:43;4.82;;;3.22;;
48941;SDS011;35340;52.378;4.648;2023-02-13T09:14:08;3.42;;;2.90;;
48941;SDS011;35340;52.378;4.648;2023-02-13T09:16:34;3.60;;;3.22;;
48941;SDS011;35340;52.378;4.648;2023-02-13T09:18:59;3.78;;;3.00;;
48941;SDS011;35340;52.378;4.648;2023-02-13T09:21:25;3.63;;;3.03;;
48941;SDS011;35340;52.378;4.648;2023-02-13T09:23:50;3.10;;;2.65;;
48941;SDS011;35340;52.378;4.648;2023-02-13T09:26:17;3.47;;;2.75;;
48941;SDS011;35340;52.378;4.648;2023-02-13T09:28:43;3.70;;;3.08;;
48941;SDS011;35340;52.378;4.648;2023-02-13T09:31:12;3.55;;;2.78;;
48941;SDS011;35340;52.378;4.648;2023-02-13T09:33:43;4.15;;;2.92;;
48941;SDS011;35340;52.378;4.648;2023-02-13T09:36:11;4.32;;;2.72;;
48941;SDS011;35340;52.378;4.648;2023-02-13T09:38:43;4.07;;;3.25;;
48941;SDS011;35340;52.378;4.648;2023-02-13T09:41:17;3.78;;;3.10;;
48941;SDS011;35340;52.378;4.648;2023-02-13T09:43:47;3.15;;;2.75;;
48941;SDS011;35340;52.378;4.648;2023-02-13T09:46:17;4.00;;;3.08;;
48941;SDS011;35340;52.378;4.648;2023-02-13T09:48:50;3.35;;;2.88;;
48941;SDS011;35340;52.378;4.648;2023-02-13T09:51:19;4.53;;;2.65;;
48941;SDS011;35340;52.378;4.648;2023-02-13T09:53:56;4.10;;;3.05;;
48941;SDS011;35340;52.378;4.648;2023-02-13T10:18:49;3.33;;;2.55;;
48941;SDS011;35340;52.378;4.648;2023-02-13T10:21:17;2.85;;;2.55;;
48941;SDS011;35340;52.378;4.648;2023-02-13T10:23:50;3.40;;;2.85;;
48941;SDS011;35340;52.378;4.648;2023-02-13T10:26:30;3.05;;;2.50;;
48941;SDS011;35340;52.378;4.648;2023-02-13T10:29:31;3.25;;;2.67;;
48941;SDS011;35340;52.378;4.648;2023-02-13T10:35:18;2.67;;;2.35;;
48941;SDS011;35340;52.378;4.648;2023-02-13T10:37:45;3.30;;;2.80;;
48941;SDS011;35340;52.378;4.648;2023-02-13T10:40:15;3.10;;;2.50;;
48941;SDS011;35340;52.378;4.648;2023-02-13T10:42:46;3.40;;;2.70;;
48941;SDS011;35340;52.378;4.648;2023-02-13T10:48:44;3.53;;;2.80;;
48941;SDS011;35340;52.378;4.648;2023-02-13T10:51:48;2.60;;;2.35;;
48941;SDS011;35340;52.378;4.648;2023-02-13T10:57:19;3.05;;;2.47;;
48941;SDS011;35340;52.378;4.648;2023-02-13T11:00:09;2.67;;;2.40;;
48941;SDS011;35340;52.378;4.648;2023-02-13T11:02:49;2.80;;;2.50;;
48941;SDS011;35340;52.378;4.648;2023-02-13T11:05:19;3.13;;;2.60;;
48941;SDS011;35340;52.378;4.648;2023-02-13T11:07:47;2.90;;;2.55;;
48941;SDS011;35340;52.378;4.648;2023-02-13T11:10:15;3.42;;;2.53;;
48941;SDS011;35340;52.378;4.648;2023-02-13T11:12:48;3.25;;;2.50;;
48941;SDS011;35340;52.378;4.648;2023-02-13T11:15:19;3.50;;;2.65;;
48941;SDS011;35340;52.378;4.648;2023-02-13T11:17:49;3.08;;;2.67;;
48941;SDS011;35340;52.378;4.648;2023-02-13T11:20:31;2.88;;;2.55;;
48941;SDS011;35340;52.378;4.648;2023-02-13T11:25:52;3.33;;;2.57;;
48941;SDS011;35340;52.378;4.648;2023-02-13T11:28:21;2.78;;;2.30;;
48941;SDS011;35340;52.378;4.648;2023-02-13T11:30:47;2.97;;;2.45;;
48941;SDS011;35340;52.378;4.648;2023-02-13T11:35:41;2.72;;;2.25;;
48941;SDS011;35340;52.378;4.648;2023-02-13T11:40:40;3.15;;;2.55;;
48941;SDS011;35340;52.378;4.648;2023-02-13T11:46:05;2.90;;;2.00;;
48941;SDS011;35340;52.378;4.648;2023-02-13T11:48:34;2.58;;;2.33;;
48941;SDS011;35340;52.378;4.648;2023-02-13T11:50:59;2.38;;;2.10;;
48941;SDS011;35340;52.378;4.648;2023-02-13T11:53:34;2.50;;;2.30;;
48941;SDS011;35340;52.378;4.648;2023-02-13T11:56:15;4.22;;;2.45;;
48941;SDS011;35340;52.378;4.648;2023-02-13T11:58:41;2.70;;;2.35;;
48941;SDS011;35340;52.378;4.648;2023-02-13T12:03:32;2.80;;;2.33;;
48941;SDS011;35340;52.378;4.648;2023-02-13T12:05:59;3.03;;;2.60;;
48941;SDS011;35340;52.378;4.648;2023-02-13T12:08:24;3.28;;;2.70;;
48941;SDS011;35340;52.378;4.648;2023-02-13T12:10:50;2.45;;;2.17;;
48941;SDS011;35340;52.378;4.648;2023-02-13T12:13:20;3.13;;;2.45;;
48941;SDS011;35340;52.378;4.648;2023-02-13T12:16:05;2.85;;;2.55;;
48941;SDS011;35340;52.378;4.648;2023-02-13T12:18:57;3.03;;;2.72;;
48941;SDS011;35340;52.378;4.648;2023-02-13T12:38:15;3.40;;;2.95;;
48941;SDS011;35340;52.378;4.648;2023-02-13T12:41:10;3.72;;;2.70;;
48941;SDS011;35340;52.378;4.648;2023-02-13T12:55:13;3.42;;;3.13;;
48941;SDS011;35340;52.378;4.648;2023-02-13T12:58:04;3.42;;;2.70;;
48941;SDS011;35340;52.378;4.648;2023-02-13T13:22:06;7.78;;;3.03;;
48941;SDS011;35340;52.378;4.648;2023-02-13T13:27:24;4.18;;;3.33;;
48941;SDS011;35340;52.378;4.648;2023-02-13T13:30:02;3.97;;;3.25;;
48941;SDS011;35340;52.378;4.648;2023-02-13T13:32:37;4.10;;;3.67;;
48941;SDS011;35340;52.378;4.648;2023-02-13T13:35:05;5.95;;;4.25;;
48941;SDS011;35340;52.378;4.648;2023-02-13T13:40:44;5.93;;;4.28;;
48941;SDS011;35340;52.378;4.648;2023-02-13T13:43:18;7.32;;;4.20;;
48941;SDS011;35340;52.378;4.648;2023-02-13T13:45:58;6.22;;;4.60;;
48941;SDS011;35340;52.378;4.648;2023-02-13T13:48:52;5.28;;;4.28;;
48941;SDS011;35340;52.378;4.648;2023-02-13T13:51:19;8.25;;;4.78;;
48941;SDS011;35340;52.378;4.648;2023-02-13T14:04:59;5.85;;;5.00;;
48941;SDS011;35340;52.378;4.648;2023-02-13T14:07:32;5.35;;;4.70;;
48941;SDS011;35340;52.378;4.648;2023-02-13T14:10:03;7.70;;;4.80;;
48941;SDS011;35340;52.378;4.648;2023-02-13T14:14:55;7.55;;;4.70;;
48941;SDS011;35340;52.378;4.648;2023-02-13T14:20:19;8.80;;;4.70;;
48941;SDS011;35340;52.378;4.648;2023-02-13T14:22:45;5.38;;;4.78;;
48941;SDS011;35340;52.378;4.648;2023-02-13T14:25:20;6.80;;;5.47;;
48941;SDS011;35340;52.378;4.648;2023-02-13T14:27:56;6.22;;;4.80;;
48941;SDS011;35340;52.378;4.648;2023-02-13T14:30:41;6.60;;;5.20;;
48941;SDS011;35340;52.378;4.648;2023-02-13T14:33:07;6.95;;;5.00;;
48941;SDS011;35340;52.378;4.648;2023-02-13T14:36:16;5.38;;;4.80;;
48941;SDS011;35340;52.378;4.648;2023-02-13T14:38:56;5.75;;;4.78;;
48941;SDS011;35340;52.378;4.648;2023-02-13T14:44:23;5.90;;;5.10;;
48941;SDS011;35340;52.378;4.648;2023-02-13T14:46:55;8.50;;;4.97;;
48941;SDS011;35340;52.378;4.648;2023-02-13T14:49:29;5.75;;;4.95;;
48941;SDS011;35340;52.378;4.648;2023-02-13T14:52:02;8.13;;;5.53;;
48941;SDS011;35340;52.378;4.648;2023-02-13T14:54:49;8.40;;;5.93;;
48941;SDS011;35340;52.378;4.648;2023-02-13T14:57:20;10.15;;;5.35;;
48941;SDS011;35340;52.378;4.648;2023-02-13T15:03:12;5.75;;;4.35;;
48941;SDS011;35340;52.378;4.648;2023-02-13T15:05:52;5.68;;;4.78;;
48941;SDS011;35340;52.378;4.648;2023-02-13T15:08:22;5.57;;;4.50;;
48941;SDS011;35340;52.378;4.648;2023-02-13T15:10:52;8.13;;;4.35;;
48941;SDS011;35340;52.378;4.648;2023-02-13T15:13:24;4.35;;;3.95;;
48941;SDS011;35340;52.378;4.648;2023-02-13T15:15:58;5.35;;;4.10;;
48941;SDS011;35340;52.378;4.648;2023-02-13T15:18:32;4.30;;;3.80;;
48941;SDS011;35340;52.378;4.648;2023-02-13T15:21:05;4.22;;;3.67;;
48941;SDS011;35340;52.378;4.648;2023-02-13T15:23:33;4.13;;;3.40;;
48941;SDS011;35340;52.378;4.648;2023-02-13T15:25:59;6.05;;;3.80;;
48941;SDS011;35340;52.378;4.648;2023-02-13T15:28:30;9.60;;;4.07;;
48941;SDS011;35340;52.378;4.648;2023-02-13T15:30:59;5.68;;;3.40;;
48941;SDS011;35340;52.378;4.648;2023-02-13T15:33:33;4.35;;;3.65;;
48941;SDS011;35340;52.378;4.648;2023-02-13T15:36:15;4.32;;;3.65;;
48941;SDS011;35340;52.378;4.648;2023-02-13T15:38:55;4.93;;;3.55;;
48941;SDS011;35340;52.378;4.648;2023-02-13T15:41:31;4.07;;;3.40;;
48941;SDS011;35340;52.378;4.648;2023-02-13T15:44:01;5.45;;;3.40;;
48941;SDS011;35340;52.378;4.648;2023-02-13T15:46:34;4.00;;;3.58;;
48941;SDS011;35340;52.378;4.648;2023-02-13T15:49:06;4.68;;;3.70;;
48941;SDS011;35340;52.378;4.648;2023-02-13T15:51:34;5.20;;;3.50;;
48941;SDS011;35340;52.378;4.648;2023-02-13T15:54:04;4.88;;;3.63;;
48941;SDS011;35340;52.378;4.648;2023-02-13T15:56:51;4.25;;;3.53;;
48941;SDS011;35340;52.378;4.648;2023-02-13T15:59:25;4.45;;;3.67;;
48941;SDS011;35340;52.378;4.648;2023-02-13T16:01:59;3.88;;;3.17;;
48941;SDS011;35340;52.378;4.648;2023-02-13T16:04:25;5.13;;;3.67;;
48941;SDS011;35340;52.378;4.648;2023-02-13T16:06:52;3.67;;;3.15;;
48941;SDS011;35340;52.378;4.648;2023-02-13T16:09:21;4.15;;;3.40;;
48941;SDS011;35340;52.378;4.648;2023-02-13T16:12:03;4.60;;;3.45;;
48941;SDS011;35340;52.378;4.648;2023-02-13T16:14:35;3.70;;;3.30;;
48941;SDS011;35340;52.378;4.648;2023-02-13T16:17:12;4.47;;;3.63;;
48941;SDS011;35340;52.378;4.648;2023-02-13T16:22:20;4.47;;;3.45;;
48941;SDS011;35340;52.378;4.648;2023-02-13T16:25:03;3.80;;;3.38;;
48941;SDS011;35340;52.378;4.648;2023-02-13T16:30:23;4.90;;;3.63;;
48941;SDS011;35340;52.378;4.648;2023-02-13T16:35:42;3.95;;;3.28;;
48941;SDS011;35340;52.378;4.648;2023-02-13T16:41:04;4.03;;;3.20;;
48941;SDS011;35340;52.378;4.648;2023-02-13T16:43:56;3.80;;;3.20;;
48941;SDS011;35340;52.378;4.648;2023-02-13T16:46:49;4.45;;;3.42;;
48941;SDS011;35340;52.378;4.648;2023-02-13T16:49:19;3.83;;;3.38;;
48941;SDS011;35340;52.378;4.648;2023-02-13T16:51:50;4.15;;;3.60;;
48941;SDS011;35340;52.378;4.648;2023-02-13T16:54:20;3.78;;;3.17;;
48941;SDS011;35340;52.378;4.648;2023-02-13T16:56:48;3.97;;;3.50;;
48941;SDS011;35340;52.378;4.648;2023-02-13T17:01:41;4.60;;;3.67;;
48941;SDS011;35340;52.378;4.648;2023-02-13T17:04:28;4.35;;;3.58;;
48941;SDS011;35340;52.378;4.648;2023-02-13T17:06:53;3.95;;;3.40;;
48941;SDS011;35340;52.378;4.648;2023-02-13T17:09:20;3.88;;;3.42;;
48941;SDS011;35340;52.378;4.648;2023-02-13T17:11:52;3.33;;;2.90;;
48941;SDS011;35340;52.378;4.648;2023-02-13T17:14:18;3.58;;;3.28;;
48941;SDS011;35340;52.378;4.648;2023-02-13T17:16:44;4.00;;;3.28;;
48941;SDS011;35340;52.378;4.648;2023-02-13T17:19:10;5.63;;;3.03;;
48941;SDS011;35340;52.378;4.648;2023-02-13T17:21:41;4.25;;;2.90;;
48941;SDS011;35340;52.378;4.648;2023-02-13T17:24:22;7.28;;;3.38;;
48941;SDS011;35340;52.378;4.648;2023-02-13T17:27:08;7.90;;;2.95;;
48941;SDS011;35340;52.378;4.648;2023-02-13T17:29:35;4.10;;;2.88;;
48941;SDS011;35340;52.378;4.648;2023-02-13T17:32:00;3.97;;;3.10;;
48941;SDS011;35340;52.378;4.648;2023-02-13T17:34:26;5.38;;;3.00;;
48941;SDS011;35340;52.378;4.648;2023-02-13T17:36:52;6.03;;;3.17;;
48941;SDS011;35340;52.378;4.648;2023-02-13T17:39:17;4.07;;;3.05;;
48941;SDS011;35340;52.378;4.648;2023-02-13T17:41:42;3.35;;;2.67;;
48941;SDS011;35340;52.378;4.648;2023-02-13T17:44:10;4.15;;;2.95;;
48941;SDS011;35340;52.378;4.648;2023-02-13T17:46:36;3.95;;;2.75;;
48941;SDS011;35340;52.378;4.648;2023-02-13T17:49:02;3.42;;;2.67;;
48941;SDS011;35340;52.378;4.648;2023-02-13T17:51:28;4.57;;;2.80;;
48941;SDS011;35340;52.378;4.648;2023-02-13T17:53:55;3.50;;;2.80;;
48941;SDS011;35340;52.378;4.648;2023-02-13T17:56:21;3.58;;;2.70;;
48941;SDS011;35340;52.378;4.648;2023-02-13T17:58:46;3.45;;;2.65;;
48941;SDS011;35340;52.378;4.648;2023-02-13T18:01:12;3.42;;;2.53;;
48941;SDS011;35340;52.378;4.648;2023-02-13T18:03:37;4.20;;;2.70;;
48941;SDS011;35340;52.378;4.648;2023-02-13T18:06:04;4.93;;;2.80;;
48941;SDS011;35340;52.378;4.648;2023-02-13T18:08:30;3.15;;;2.55;;
48941;SDS011;35340;52.378;4.648;2023-02-13T18:10:55;2.53;;;2.10;;